sensor_id;sensor_type;location;lat;lon;timestamp;P1;durP1;ratioP1;P2;durP2;ratioP2
42662;SDS011;44330;51.360;6.686;2022-11-20T00:00:41;33.03;;;15.98;;
42662;SDS011;44330;51.360;6.686;2022-11-20T00:03:07;32.35;;;15.57;;
42662;SDS011;44330;51.360;6.686;2022-11-20T00:05:32;29.95;;;14.95;;
42662;SDS011;44330;51.360;6.686;2022-11-20T00:07:58;30.08;;;14.75;;
42662;SDS011;44330;51.360;6.686;2022-11-20T00:10:24;29.27;;;15.82;;
42662;SDS011;44330;51.360;6.686;2022-11-20T00:12:49;32.63;;;15.93;;
42662;SDS011;44330;51.360;6.686;2022-11-20T00:15:15;31.60;;;17.13;;
42662;SDS011;44330;51.360;6.686;2022-11-20T00:17:40;31.30;;;15.82;;
42662;SDS011;44330;51.360;6.686;2022-11-20T00:20:06;30.40;;;16.83;;
42662;SDS011;44330;51.360;6.686;2022-11-20T00:22:32;30.98;;;15.57;;
42662;SDS011;44330;51.360;6.686;2022-11-20T00:24:57;30.45;;;15.63;;
42662;SDS011;44330;51.360;6.686;2022-11-20T00:27:23;35.08;;;17.25;;
42662;SDS011;44330;51.360;6.686;2022-11-20T00:29:48;36.25;;;17.40;;
42662;SDS011;44330;51.360;6.686;2022-11-20T00:32:14;34.40;;;17.45;;
42662;SDS011;44330;51.360;6.686;2022-11-20T00:34:40;34.00;;;16.65;;
42662;SDS011;44330;51.360;6.686;2022-11-20T00:37:05;33.70;;;17.10;;
42662;SDS011;44330;51.360;6.686;2022-11-20T00:39:31;33.90;;;18.17;;
42662;SDS011;44330;51.360;6.686;2022-11-20T00:41:56;34.30;;;17.83;;
42662;SDS011;44330;51.360;6.686;2022-11-20T00:44:22;38.05;;;19.40;;
42662;SDS011;44330;51.360;6.686;2022-11-20T00:46:47;43.95;;;19.05;;
42662;SDS011;44330;51.360;6.686;2022-11-20T00:49:13;37.60;;;18.45;;
42662;SDS011;44330;51.360;6.686;2022-11-20T00:51:38;38.95;;;19.67;;
42662;SDS011;44330;51.360;6.686;2022-11-20T00:54:04;37.28;;;18.77;;
42662;SDS011;44330;51.360;6.686;2022-11-20T00:56:29;34.90;;;17.40;;
42662;SDS011;44330;51.360;6.686;2022-11-20T00:58:55;36.13;;;18.80;;
42662;SDS011;44330;51.360;6.686;2022-11-20T01:01:24;33.30;;;17.08;;
42662;SDS011;44330;51.360;6.686;2022-11-20T01:03:51;41.85;;;19.60;;
42662;SDS011;44330;51.360;6.686;2022-11-20T01:06:19;34.33;;;18.25;;
42662;SDS011;44330;51.360;6.686;2022-11-20T01:08:50;37.47;;;18.67;;
42662;SDS011;44330;51.360;6.686;2022-11-20T01:11:18;38.47;;;19.08;;
42662;SDS011;44330;51.360;6.686;2022-11-20T01:13:48;38.30;;;17.90;;
42662;SDS011;44330;51.360;6.686;2022-11-20T01:16:17;36.97;;;18.15;;
42662;SDS011;44330;51.360;6.686;2022-11-20T01:18:48;34.67;;;18.63;;
42662;SDS011;44330;51.360;6.686;2022-11-20T01:21:17;38.10;;;19.25;;
42662;SDS011;44330;51.360;6.686;2022-11-20T01:23:42;39.40;;;19.23;;
42662;SDS011;44330;51.360;6.686;2022-11-20T01:26:10;40.70;;;19.90;;
42662;SDS011;44330;51.360;6.686;2022-11-20T01:28:41;36.33;;;19.65;;
42662;SDS011;44330;51.360;6.686;2022-11-20T01:31:11;38.28;;;19.38;;
42662;SDS011;44330;51.360;6.686;2022-11-20T01:33:38;38.88;;;20.55;;
42662;SDS011;44330;51.360;6.686;2022-11-20T01:36:06;37.88;;;19.02;;
42662;SDS011;44330;51.360;6.686;2022-11-20T01:38:32;39.90;;;18.83;;
42662;SDS011;44330;51.360;6.686;2022-11-20T01:40:58;41.17;;;21.33;;
42662;SDS011;44330;51.360;6.686;2022-11-20T01:43:23;37.78;;;19.88;;
42662;SDS011;44330;51.360;6.686;2022-11-20T01:48:26;38.75;;;21.17;;
42662;SDS011;44330;51.360;6.686;2022-11-20T01:51:00;39.10;;;20.30;;
42662;SDS011;44330;51.360;6.686;2022-11-20T01:53:28;40.28;;;20.50;;
42662;SDS011;44330;51.360;6.686;2022-11-20T01:55:58;43.55;;;19.83;;
42662;SDS011;44330;51.360;6.686;2022-11-20T01:58:30;37.47;;;19.90;;
42662;SDS011;44330;51.360;6.686;2022-11-20T02:01:00;40.35;;;20.58;;
42662;SDS011;44330;51.360;6.686;2022-11-20T02:03:26;41.58;;;20.00;;
42662;SDS011;44330;51.360;6.686;2022-11-20T02:08:25;38.30;;;19.30;;
42662;SDS011;44330;51.360;6.686;2022-11-20T02:10:50;39.55;;;20.35;;
42662;SDS011;44330;51.360;6.686;2022-11-20T02:13:16;40.08;;;19.95;;
42662;SDS011;44330;51.360;6.686;2022-11-20T02:16:00;39.00;;;20.00;;
42662;SDS011;44330;51.360;6.686;2022-11-20T02:18:26;42.38;;;20.00;;
42662;SDS011;44330;51.360;6.686;2022-11-20T02:21:03;40.88;;;21.48;;
42662;SDS011;44330;51.360;6.686;2022-11-20T02:26:34;39.42;;;20.08;;
42662;SDS011;44330;51.360;6.686;2022-11-20T02:29:15;36.38;;;19.52;;
42662;SDS011;44330;51.360;6.686;2022-11-20T02:31:43;40.97;;;20.67;;
42662;SDS011;44330;51.360;6.686;2022-11-20T02:34:10;46.08;;;21.00;;
42662;SDS011;44330;51.360;6.686;2022-11-20T02:36:35;38.08;;;20.70;;
42662;SDS011;44330;51.360;6.686;2022-11-20T02:39:04;43.88;;;20.73;;
42662;SDS011;44330;51.360;6.686;2022-11-20T02:41:34;39.03;;;20.00;;
42662;SDS011;44330;51.360;6.686;2022-11-20T02:44:01;43.13;;;21.63;;
42662;SDS011;44330;51.360;6.686;2022-11-20T02:46:28;43.78;;;20.30;;
42662;SDS011;44330;51.360;6.686;2022-11-20T02:48:54;42.95;;;21.38;;
42662;SDS011;44330;51.360;6.686;2022-11-20T02:51:19;41.35;;;19.98;;
42662;SDS011;44330;51.360;6.686;2022-11-20T02:53:45;48.03;;;22.77;;
42662;SDS011;44330;51.360;6.686;2022-11-20T02:56:10;43.05;;;21.60;;
42662;SDS011;44330;51.360;6.686;2022-11-20T02:58:36;42.78;;;21.17;;
42662;SDS011;44330;51.360;6.686;2022-11-20T03:01:01;44.78;;;22.20;;
42662;SDS011;44330;51.360;6.686;2022-11-20T03:03:27;46.97;;;23.25;;
42662;SDS011;44330;51.360;6.686;2022-11-20T03:05:52;44.45;;;21.20;;
42662;SDS011;44330;51.360;6.686;2022-11-20T03:08:18;40.25;;;21.60;;
42662;SDS011;44330;51.360;6.686;2022-11-20T03:10:43;46.78;;;21.17;;
42662;SDS011;44330;51.360;6.686;2022-11-20T03:13:09;44.45;;;21.38;;
42662;SDS011;44330;51.360;6.686;2022-11-20T03:15:35;44.05;;;21.92;;
42662;SDS011;44330;51.360;6.686;2022-11-20T03:18:01;38.50;;;20.73;;
42662;SDS011;44330;51.360;6.686;2022-11-20T03:20:27;46.92;;;22.70;;
42662;SDS011;44330;51.360;6.686;2022-11-20T03:22:53;40.17;;;21.23;;
42662;SDS011;44330;51.360;6.686;2022-11-20T03:25:19;40.13;;;21.05;;
42662;SDS011;44330;51.360;6.686;2022-11-20T03:27:44;41.85;;;20.90;;
42662;SDS011;44330;51.360;6.686;2022-11-20T03:30:10;36.95;;;20.33;;
42662;SDS011;44330;51.360;6.686;2022-11-20T03:32:36;48.20;;;22.42;;
42662;SDS011;44330;51.360;6.686;2022-11-20T03:35:01;39.10;;;20.75;;
42662;SDS011;44330;51.360;6.686;2022-11-20T03:37:27;41.45;;;21.30;;
42662;SDS011;44330;51.360;6.686;2022-11-20T03:39:52;44.67;;;21.90;;
42662;SDS011;44330;51.360;6.686;2022-11-20T03:42:18;41.78;;;20.63;;
42662;SDS011;44330;51.360;6.686;2022-11-20T03:45:02;38.95;;;20.25;;
42662;SDS011;44330;51.360;6.686;2022-11-20T03:47:28;38.08;;;19.98;;
42662;SDS011;44330;51.360;6.686;2022-11-20T03:49:54;42.90;;;22.02;;
42662;SDS011;44330;51.360;6.686;2022-11-20T03:52:19;39.55;;;21.48;;
42662;SDS011;44330;51.360;6.686;2022-11-20T03:54:45;43.30;;;21.90;;
42662;SDS011;44330;51.360;6.686;2022-11-20T03:57:10;42.20;;;22.08;;
42662;SDS011;44330;51.360;6.686;2022-11-20T03:59:36;41.72;;;22.00;;
42662;SDS011;44330;51.360;6.686;2022-11-20T04:02:01;40.25;;;22.02;;
42662;SDS011;44330;51.360;6.686;2022-11-20T04:04:27;45.78;;;23.85;;
42662;SDS011;44330;51.360;6.686;2022-11-20T04:06:52;44.15;;;22.90;;
42662;SDS011;44330;51.360;6.686;2022-11-20T04:09:18;42.25;;;21.85;;
42662;SDS011;44330;51.360;6.686;2022-11-20T04:11:43;41.83;;;23.00;;
42662;SDS011;44330;51.360;6.686;2022-11-20T04:14:12;47.13;;;24.58;;
42662;SDS011;44330;51.360;6.686;2022-11-20T04:16:39;37.17;;;21.60;;
42662;SDS011;44330;51.360;6.686;2022-11-20T04:19:06;44.40;;;22.73;;
42662;SDS011;44330;51.360;6.686;2022-11-20T04:21:35;44.60;;;22.67;;
42662;SDS011;44330;51.360;6.686;2022-11-20T04:24:01;38.53;;;22.40;;
42662;SDS011;44330;51.360;6.686;2022-11-20T04:26:27;45.08;;;22.02;;
42662;SDS011;44330;51.360;6.686;2022-11-20T04:28:54;41.88;;;21.63;;
42662;SDS011;44330;51.360;6.686;2022-11-20T04:31:21;41.28;;;22.10;;
42662;SDS011;44330;51.360;6.686;2022-11-20T04:33:49;43.13;;;24.08;;
42662;SDS011;44330;51.360;6.686;2022-11-20T04:36:24;43.47;;;20.80;;
42662;SDS011;44330;51.360;6.686;2022-11-20T04:38:51;42.20;;;22.35;;
42662;SDS011;44330;51.360;6.686;2022-11-20T04:41:19;39.67;;;20.00;;
42662;SDS011;44330;51.360;6.686;2022-11-20T04:46:14;40.05;;;19.90;;
42662;SDS011;44330;51.360;6.686;2022-11-20T04:48:40;47.67;;;21.70;;
42662;SDS011;44330;51.360;6.686;2022-11-20T04:51:06;35.35;;;19.88;;
42662;SDS011;44330;51.360;6.686;2022-11-20T04:53:31;39.00;;;20.77;;
42662;SDS011;44330;51.360;6.686;2022-11-20T04:56:01;41.90;;;20.30;;
42662;SDS011;44330;51.360;6.686;2022-11-20T04:58:30;42.88;;;21.85;;
42662;SDS011;44330;51.360;6.686;2022-11-20T05:01:06;37.00;;;19.60;;
42662;SDS011;44330;51.360;6.686;2022-11-20T05:03:40;42.40;;;19.85;;
42662;SDS011;44330;51.360;6.686;2022-11-20T05:06:07;43.45;;;21.13;;
42662;SDS011;44330;51.360;6.686;2022-11-20T05:08:33;42.85;;;21.25;;
42662;SDS011;44330;51.360;6.686;2022-11-20T05:11:05;37.40;;;20.95;;
42662;SDS011;44330;51.360;6.686;2022-11-20T05:13:32;37.33;;;19.60;;
42662;SDS011;44330;51.360;6.686;2022-11-20T05:16:05;38.00;;;20.05;;
42662;SDS011;44330;51.360;6.686;2022-11-20T05:18:32;40.70;;;19.95;;
42662;SDS011;44330;51.360;6.686;2022-11-20T05:20:59;39.88;;;20.65;;
42662;SDS011;44330;51.360;6.686;2022-11-20T05:23:25;39.22;;;20.17;;
42662;SDS011;44330;51.360;6.686;2022-11-20T05:25:54;37.08;;;20.60;;
42662;SDS011;44330;51.360;6.686;2022-11-20T05:28:20;37.60;;;20.50;;
42662;SDS011;44330;51.360;6.686;2022-11-20T05:30:46;39.78;;;21.13;;
42662;SDS011;44330;51.360;6.686;2022-11-20T05:33:12;38.78;;;20.35;;
42662;SDS011;44330;51.360;6.686;2022-11-20T05:35:38;35.03;;;20.70;;
42662;SDS011;44330;51.360;6.686;2022-11-20T05:38:03;42.17;;;21.83;;
42662;SDS011;44330;51.360;6.686;2022-11-20T05:40:29;37.25;;;20.80;;
42662;SDS011;44330;51.360;6.686;2022-11-20T05:42:54;39.08;;;21.27;;
42662;SDS011;44330;51.360;6.686;2022-11-20T05:45:20;39.28;;;20.48;;
42662;SDS011;44330;51.360;6.686;2022-11-20T05:47:45;36.35;;;20.27;;
42662;SDS011;44330;51.360;6.686;2022-11-20T05:50:11;34.78;;;20.00;;
42662;SDS011;44330;51.360;6.686;2022-11-20T05:52:37;43.53;;;22.10;;
42662;SDS011;44330;51.360;6.686;2022-11-20T05:55:02;36.75;;;20.65;;
42662;SDS011;44330;51.360;6.686;2022-11-20T05:57:28;42.83;;;21.25;;
42662;SDS011;44330;51.360;6.686;2022-11-20T05:59:53;39.25;;;21.13;;
42662;SDS011;44330;51.360;6.686;2022-11-20T06:02:19;40.63;;;21.15;;
42662;SDS011;44330;51.360;6.686;2022-11-20T06:04:44;40.03;;;20.48;;
42662;SDS011;44330;51.360;6.686;2022-11-20T06:07:10;38.45;;;20.23;;
42662;SDS011;44330;51.360;6.686;2022-11-20T06:09:35;37.95;;;20.38;;
42662;SDS011;44330;51.360;6.686;2022-11-20T06:12:01;38.10;;;20.23;;
42662;SDS011;44330;51.360;6.686;2022-11-20T06:14:27;38.78;;;21.38;;
42662;SDS011;44330;51.360;6.686;2022-11-20T06:16:52;40.53;;;21.30;;
42662;SDS011;44330;51.360;6.686;2022-11-20T06:19:18;37.25;;;20.65;;
42662;SDS011;44330;51.360;6.686;2022-11-20T06:21:43;40.50;;;21.80;;
42662;SDS011;44330;51.360;6.686;2022-11-20T06:24:09;45.13;;;21.27;;
42662;SDS011;44330;51.360;6.686;2022-11-20T06:26:35;46.13;;;22.27;;
42662;SDS011;44330;51.360;6.686;2022-11-20T06:29:01;46.63;;;22.55;;
42662;SDS011;44330;51.360;6.686;2022-11-20T06:31:27;39.80;;;21.92;;
42662;SDS011;44330;51.360;6.686;2022-11-20T06:33:53;41.35;;;21.42;;
42662;SDS011;44330;51.360;6.686;2022-11-20T06:36:20;47.22;;;23.33;;
42662;SDS011;44330;51.360;6.686;2022-11-20T06:38:47;40.75;;;20.58;;
42662;SDS011;44330;51.360;6.686;2022-11-20T06:41:14;40.40;;;21.08;;
42662;SDS011;44330;51.360;6.686;2022-11-20T06:43:42;39.75;;;19.75;;
42662;SDS011;44330;51.360;6.686;2022-11-20T06:46:08;42.60;;;22.10;;
42662;SDS011;44330;51.360;6.686;2022-11-20T06:48:35;39.00;;;21.77;;
42662;SDS011;44330;51.360;6.686;2022-11-20T06:51:05;42.17;;;22.25;;
42662;SDS011;44330;51.360;6.686;2022-11-20T06:53:31;36.08;;;20.58;;
42662;SDS011;44330;51.360;6.686;2022-11-20T06:55:57;39.30;;;20.70;;
42662;SDS011;44330;51.360;6.686;2022-11-20T06:58:23;41.25;;;20.45;;
42662;SDS011;44330;51.360;6.686;2022-11-20T07:00:51;44.20;;;21.40;;
42662;SDS011;44330;51.360;6.686;2022-11-20T07:03:16;39.10;;;20.40;;
42662;SDS011;44330;51.360;6.686;2022-11-20T07:05:42;35.92;;;20.70;;
42662;SDS011;44330;51.360;6.686;2022-11-20T07:08:08;41.70;;;20.55;;
42662;SDS011;44330;51.360;6.686;2022-11-20T07:10:34;41.75;;;21.10;;
42662;SDS011;44330;51.360;6.686;2022-11-20T07:13:00;34.65;;;19.50;;
42662;SDS011;44330;51.360;6.686;2022-11-20T07:15:26;42.33;;;20.75;;
42662;SDS011;44330;51.360;6.686;2022-11-20T07:17:51;38.50;;;20.90;;
42662;SDS011;44330;51.360;6.686;2022-11-20T07:20:17;42.55;;;21.40;;
42662;SDS011;44330;51.360;6.686;2022-11-20T07:22:42;42.33;;;21.80;;
42662;SDS011;44330;51.360;6.686;2022-11-20T07:25:08;49.03;;;22.58;;
42662;SDS011;44330;51.360;6.686;2022-11-20T07:27:34;39.30;;;21.25;;
42662;SDS011;44330;51.360;6.686;2022-11-20T07:30:00;37.88;;;20.63;;
42662;SDS011;44330;51.360;6.686;2022-11-20T07:32:26;39.53;;;21.20;;
42662;SDS011;44330;51.360;6.686;2022-11-20T07:34:51;38.63;;;20.35;;
42662;SDS011;44330;51.360;6.686;2022-11-20T07:37:17;43.95;;;21.73;;
42662;SDS011;44330;51.360;6.686;2022-11-20T07:39:43;40.85;;;22.00;;
42662;SDS011;44330;51.360;6.686;2022-11-20T07:42:09;40.65;;;23.33;;
42662;SDS011;44330;51.360;6.686;2022-11-20T07:44:35;44.88;;;23.92;;
42662;SDS011;44330;51.360;6.686;2022-11-20T07:47:01;46.00;;;24.17;;
42662;SDS011;44330;51.360;6.686;2022-11-20T07:49:26;45.17;;;22.88;;
42662;SDS011;44330;51.360;6.686;2022-11-20T07:51:52;40.45;;;22.35;;
42662;SDS011;44330;51.360;6.686;2022-11-20T07:54:19;40.65;;;22.35;;
42662;SDS011;44330;51.360;6.686;2022-11-20T07:56:45;43.13;;;23.10;;
42662;SDS011;44330;51.360;6.686;2022-11-20T07:59:11;39.17;;;22.17;;
42662;SDS011;44330;51.360;6.686;2022-11-20T08:01:37;45.58;;;23.13;;
42662;SDS011;44330;51.360;6.686;2022-11-20T08:04:03;37.67;;;20.67;;
42662;SDS011;44330;51.360;6.686;2022-11-20T08:06:29;41.72;;;21.50;;
42662;SDS011;44330;51.360;6.686;2022-11-20T08:08:55;35.10;;;19.63;;
42662;SDS011;44330;51.360;6.686;2022-11-20T08:11:20;39.50;;;20.02;;
42662;SDS011;44330;51.360;6.686;2022-11-20T08:14:04;41.40;;;21.13;;
42662;SDS011;44330;51.360;6.686;2022-11-20T08:16:39;40.78;;;21.02;;
42662;SDS011;44330;51.360;6.686;2022-11-20T08:19:05;40.75;;;20.50;;
42662;SDS011;44330;51.360;6.686;2022-11-20T08:21:31;39.97;;;20.17;;
42662;SDS011;44330;51.360;6.686;2022-11-20T08:23:58;36.50;;;19.52;;
42662;SDS011;44330;51.360;6.686;2022-11-20T08:26:24;37.30;;;19.63;;
42662;SDS011;44330;51.360;6.686;2022-11-20T08:28:56;33.70;;;18.80;;
42662;SDS011;44330;51.360;6.686;2022-11-20T08:31:23;35.33;;;18.08;;
42662;SDS011;44330;51.360;6.686;2022-11-20T08:33:50;33.92;;;19.75;;
42662;SDS011;44330;51.360;6.686;2022-11-20T08:36:16;35.25;;;19.20;;
42662;SDS011;44330;51.360;6.686;2022-11-20T08:38:46;33.85;;;18.83;;
42662;SDS011;44330;51.360;6.686;2022-11-20T08:41:16;33.65;;;18.67;;
42662;SDS011;44330;51.360;6.686;2022-11-20T08:43:55;34.78;;;18.90;;
42662;SDS011;44330;51.360;6.686;2022-11-20T08:46:25;35.53;;;19.40;;
42662;SDS011;44330;51.360;6.686;2022-11-20T08:48:52;40.45;;;20.48;;
42662;SDS011;44330;51.360;6.686;2022-11-20T08:51:20;44.45;;;20.40;;
42662;SDS011;44330;51.360;6.686;2022-11-20T08:53:46;33.60;;;18.88;;
42662;SDS011;44330;51.360;6.686;2022-11-20T08:56:13;37.80;;;19.98;;
42662;SDS011;44330;51.360;6.686;2022-11-20T08:58:39;33.13;;;19.90;;
42662;SDS011;44330;51.360;6.686;2022-11-20T09:01:04;35.53;;;19.27;;
42662;SDS011;44330;51.360;6.686;2022-11-20T09:03:30;33.00;;;19.08;;
42662;SDS011;44330;51.360;6.686;2022-11-20T09:05:57;36.55;;;19.17;;
42662;SDS011;44330;51.360;6.686;2022-11-20T09:08:24;35.95;;;19.25;;
42662;SDS011;44330;51.360;6.686;2022-11-20T09:10:52;33.85;;;18.70;;
42662;SDS011;44330;51.360;6.686;2022-11-20T09:13:19;36.00;;;18.40;;
42662;SDS011;44330;51.360;6.686;2022-11-20T09:15:46;31.80;;;17.27;;
42662;SDS011;44330;51.360;6.686;2022-11-20T09:18:11;34.50;;;18.25;;
42662;SDS011;44330;51.360;6.686;2022-11-20T09:20:37;39.63;;;19.13;;
42662;SDS011;44330;51.360;6.686;2022-11-20T09:23:03;36.25;;;19.00;;
42662;SDS011;44330;51.360;6.686;2022-11-20T09:25:29;41.88;;;20.88;;
42662;SDS011;44330;51.360;6.686;2022-11-20T09:27:57;31.83;;;18.27;;
42662;SDS011;44330;51.360;6.686;2022-11-20T09:32:49;32.28;;;17.42;;
42662;SDS011;44330;51.360;6.686;2022-11-20T09:35:15;31.13;;;17.08;;
42662;SDS011;44330;51.360;6.686;2022-11-20T09:37:40;33.63;;;17.95;;
42662;SDS011;44330;51.360;6.686;2022-11-20T09:40:06;35.38;;;18.30;;
42662;SDS011;44330;51.360;6.686;2022-11-20T09:42:47;31.67;;;18.00;;
42662;SDS011;44330;51.360;6.686;2022-11-20T09:45:20;39.17;;;18.95;;
42662;SDS011;44330;51.360;6.686;2022-11-20T09:56:11;33.33;;;16.50;;
42662;SDS011;44330;51.360;6.686;2022-11-20T09:58:41;34.85;;;17.17;;
42662;SDS011;44330;51.360;6.686;2022-11-20T10:01:16;33.88;;;16.83;;
42662;SDS011;44330;51.360;6.686;2022-11-20T10:09:37;31.35;;;17.10;;
42662;SDS011;44330;51.360;6.686;2022-11-20T10:14:48;33.00;;;16.75;;
42662;SDS011;44330;51.360;6.686;2022-11-20T10:22:38;30.25;;;16.98;;
42662;SDS011;44330;51.360;6.686;2022-11-20T10:25:33;32.17;;;17.83;;
42662;SDS011;44330;51.360;6.686;2022-11-20T10:28:10;34.42;;;18.33;;
42662;SDS011;44330;51.360;6.686;2022-11-20T10:30:42;33.42;;;17.58;;
42662;SDS011;44330;51.360;6.686;2022-11-20T10:33:13;32.55;;;17.77;;
42662;SDS011;44330;51.360;6.686;2022-11-20T10:36:06;34.60;;;17.50;;
42662;SDS011;44330;51.360;6.686;2022-11-20T10:38:43;31.85;;;17.10;;
42662;SDS011;44330;51.360;6.686;2022-11-20T10:41:23;36.20;;;17.48;;
42662;SDS011;44330;51.360;6.686;2022-11-20T10:46:43;31.77;;;16.50;;
42662;SDS011;44330;51.360;6.686;2022-11-20T10:49:17;33.72;;;18.60;;
42662;SDS011;44330;51.360;6.686;2022-11-20T10:51:57;31.38;;;15.52;;
42662;SDS011;44330;51.360;6.686;2022-11-20T10:57:53;32.13;;;16.63;;
42662;SDS011;44330;51.360;6.686;2022-11-20T11:00:30;33.78;;;16.63;;
42662;SDS011;44330;51.360;6.686;2022-11-20T11:02:56;34.47;;;17.98;;
42662;SDS011;44330;51.360;6.686;2022-11-20T11:05:48;30.77;;;17.33;;
42662;SDS011;44330;51.360;6.686;2022-11-20T11:08:34;36.53;;;18.08;;
42662;SDS011;44330;51.360;6.686;2022-11-20T11:11:26;33.88;;;17.38;;
42662;SDS011;44330;51.360;6.686;2022-11-20T11:13:53;32.75;;;18.00;;
42662;SDS011;44330;51.360;6.686;2022-11-20T11:16:52;41.78;;;17.98;;
42662;SDS011;44330;51.360;6.686;2022-11-20T11:19:19;45.30;;;20.95;;
42662;SDS011;44330;51.360;6.686;2022-11-20T11:21:49;40.45;;;20.30;;
42662;SDS011;44330;51.360;6.686;2022-11-20T11:24:27;41.05;;;19.52;;
42662;SDS011;44330;51.360;6.686;2022-11-20T11:27:00;41.92;;;18.90;;
42662;SDS011;44330;51.360;6.686;2022-11-20T11:29:29;42.55;;;18.90;;
42662;SDS011;44330;51.360;6.686;2022-11-20T11:32:06;36.15;;;18.85;;
42662;SDS011;44330;51.360;6.686;2022-11-20T11:34:33;34.40;;;18.08;;
42662;SDS011;44330;51.360;6.686;2022-11-20T11:37:00;35.35;;;16.95;;
42662;SDS011;44330;51.360;6.686;2022-11-20T11:39:28;30.70;;;14.57;;
42662;SDS011;44330;51.360;6.686;2022-11-20T11:41:55;34.00;;;17.27;;
42662;SDS011;44330;51.360;6.686;2022-11-20T11:44:23;35.13;;;16.60;;
42662;SDS011;44330;51.360;6.686;2022-11-20T11:47:18;33.22;;;16.70;;
42662;SDS011;44330;51.360;6.686;2022-11-20T11:49:47;34.58;;;16.90;;
42662;SDS011;44330;51.360;6.686;2022-11-20T11:52:16;29.92;;;16.00;;
42662;SDS011;44330;51.360;6.686;2022-11-20T12:00:04;32.90;;;16.20;;
42662;SDS011;44330;51.360;6.686;2022-11-20T12:02:54;31.92;;;15.63;;
42662;SDS011;44330;51.360;6.686;2022-11-20T12:05:36;31.92;;;16.35;;
42662;SDS011;44330;51.360;6.686;2022-11-20T12:08:26;27.95;;;15.10;;
42662;SDS011;44330;51.360;6.686;2022-11-20T12:16:02;34.95;;;16.38;;
42662;SDS011;44330;51.360;6.686;2022-11-20T12:18:29;34.30;;;16.20;;
42662;SDS011;44330;51.360;6.686;2022-11-20T12:27:01;38.00;;;16.50;;
42662;SDS011;44330;51.360;6.686;2022-11-20T12:41:01;35.42;;;16.95;;
42662;SDS011;44330;51.360;6.686;2022-11-20T12:43:28;34.35;;;17.77;;
42662;SDS011;44330;51.360;6.686;2022-11-20T12:46:31;26.77;;;13.55;;
42662;SDS011;44330;51.360;6.686;2022-11-20T12:49:32;30.55;;;15.95;;
42662;SDS011;44330;51.360;6.686;2022-11-20T12:52:14;33.35;;;17.23;;
42662;SDS011;44330;51.360;6.686;2022-11-20T13:00:38;32.80;;;16.95;;
42662;SDS011;44330;51.360;6.686;2022-11-20T13:03:23;30.90;;;16.25;;
42662;SDS011;44330;51.360;6.686;2022-11-20T13:06:16;32.15;;;17.35;;
42662;SDS011;44330;51.360;6.686;2022-11-20T13:08:53;31.23;;;16.55;;
42662;SDS011;44330;51.360;6.686;2022-11-20T13:11:25;34.13;;;16.45;;
42662;SDS011;44330;51.360;6.686;2022-11-20T13:14:28;35.08;;;17.95;;
42662;SDS011;44330;51.360;6.686;2022-11-20T13:17:14;32.30;;;17.50;;
42662;SDS011;44330;51.360;6.686;2022-11-20T13:19:57;32.72;;;17.13;;
42662;SDS011;44330;51.360;6.686;2022-11-20T13:22:27;33.17;;;18.02;;
42662;SDS011;44330;51.360;6.686;2022-11-20T13:24:54;34.13;;;18.23;;
42662;SDS011;44330;51.360;6.686;2022-11-20T13:27:21;33.22;;;17.80;;
42662;SDS011;44330;51.360;6.686;2022-11-20T13:33:22;36.35;;;18.75;;
42662;SDS011;44330;51.360;6.686;2022-11-20T13:35:54;34.80;;;17.67;;
42662;SDS011;44330;51.360;6.686;2022-11-20T13:38:21;35.28;;;18.63;;
42662;SDS011;44330;51.360;6.686;2022-11-20T13:40:51;36.78;;;18.55;;
42662;SDS011;44330;51.360;6.686;2022-11-20T13:45:58;38.30;;;19.02;;
42662;SDS011;44330;51.360;6.686;2022-11-20T14:02:00;40.03;;;19.77;;
42662;SDS011;44330;51.360;6.686;2022-11-20T14:04:28;40.85;;;21.00;;
42662;SDS011;44330;51.360;6.686;2022-11-20T14:06:57;36.72;;;19.40;;
42662;SDS011;44330;51.360;6.686;2022-11-20T14:09:31;43.05;;;19.88;;
42662;SDS011;44330;51.360;6.686;2022-11-20T14:11:58;43.05;;;20.67;;
42662;SDS011;44330;51.360;6.686;2022-11-20T14:14:25;39.72;;;20.30;;
42662;SDS011;44330;51.360;6.686;2022-11-20T14:16:52;35.30;;;15.60;;
42662;SDS011;44330;51.360;6.686;2022-11-20T14:19:32;51.72;;;21.75;;
42662;SDS011;44330;51.360;6.686;2022-11-20T14:24:47;34.00;;;17.03;;
42662;SDS011;44330;51.360;6.686;2022-11-20T14:27:18;44.13;;;22.45;;
42662;SDS011;44330;51.360;6.686;2022-11-20T14:29:46;45.42;;;22.48;;
42662;SDS011;44330;51.360;6.686;2022-11-20T14:32:14;36.08;;;18.05;;
42662;SDS011;44330;51.360;6.686;2022-11-20T14:34:43;35.00;;;17.92;;
42662;SDS011;44330;51.360;6.686;2022-11-20T14:37:11;41.88;;;20.90;;
42662;SDS011;44330;51.360;6.686;2022-11-20T14:39:42;50.40;;;23.50;;
42662;SDS011;44330;51.360;6.686;2022-11-20T14:42:21;49.33;;;22.52;;
42662;SDS011;44330;51.360;6.686;2022-11-20T14:44:49;48.85;;;22.98;;
42662;SDS011;44330;51.360;6.686;2022-11-20T14:47:21;46.70;;;22.17;;
42662;SDS011;44330;51.360;6.686;2022-11-20T14:49:52;46.30;;;22.98;;
42662;SDS011;44330;51.360;6.686;2022-11-20T14:52:23;46.47;;;22.55;;
42662;SDS011;44330;51.360;6.686;2022-11-20T14:54:51;44.20;;;21.67;;
42662;SDS011;44330;51.360;6.686;2022-11-20T14:57:26;44.08;;;20.67;;
42662;SDS011;44330;51.360;6.686;2022-11-20T15:02:45;46.50;;;21.17;;
42662;SDS011;44330;51.360;6.686;2022-11-20T15:05:11;47.38;;;21.90;;
42662;SDS011;44330;51.360;6.686;2022-11-20T15:07:39;49.45;;;22.35;;
42662;SDS011;44330;51.360;6.686;2022-11-20T15:10:11;51.75;;;22.92;;
42662;SDS011;44330;51.360;6.686;2022-11-20T15:12:39;36.43;;;17.60;;
42662;SDS011;44330;51.360;6.686;2022-11-20T15:15:12;48.28;;;22.35;;
42662;SDS011;44330;51.360;6.686;2022-11-20T15:17:41;51.90;;;22.75;;
42662;SDS011;44330;51.360;6.686;2022-11-20T15:20:13;51.25;;;23.83;;
42662;SDS011;44330;51.360;6.686;2022-11-20T15:25:14;46.90;;;22.42;;
42662;SDS011;44330;51.360;6.686;2022-11-20T15:27:41;49.00;;;22.05;;
42662;SDS011;44330;51.360;6.686;2022-11-20T15:30:19;48.80;;;21.83;;
42662;SDS011;44330;51.360;6.686;2022-11-20T15:32:46;48.53;;;22.48;;
42662;SDS011;44330;51.360;6.686;2022-11-20T15:35:12;44.97;;;20.92;;
42662;SDS011;44330;51.360;6.686;2022-11-20T15:37:39;43.63;;;20.50;;
42662;SDS011;44330;51.360;6.686;2022-11-20T15:40:05;47.47;;;22.38;;
42662;SDS011;44330;51.360;6.686;2022-11-20T15:42:32;46.90;;;21.73;;
42662;SDS011;44330;51.360;6.686;2022-11-20T15:44:58;49.53;;;23.05;;
42662;SDS011;44330;51.360;6.686;2022-11-20T15:47:25;38.92;;;21.17;;
42662;SDS011;44330;51.360;6.686;2022-11-20T15:49:56;38.72;;;20.83;;
42662;SDS011;44330;51.360;6.686;2022-11-20T15:52:21;40.85;;;21.75;;
42662;SDS011;44330;51.360;6.686;2022-11-20T15:54:47;43.15;;;21.25;;
42662;SDS011;44330;51.360;6.686;2022-11-20T15:57:12;41.28;;;20.50;;
42662;SDS011;44330;51.360;6.686;2022-11-20T15:59:39;43.20;;;19.95;;
42662;SDS011;44330;51.360;6.686;2022-11-20T16:02:12;39.25;;;20.20;;
42662;SDS011;44330;51.360;6.686;2022-11-20T16:04:41;42.25;;;20.83;;
42662;SDS011;44330;51.360;6.686;2022-11-20T16:07:07;42.95;;;21.00;;
42662;SDS011;44330;51.360;6.686;2022-11-20T16:09:33;44.05;;;20.85;;
42662;SDS011;44330;51.360;6.686;2022-11-20T16:11:58;36.17;;;19.55;;
42662;SDS011;44330;51.360;6.686;2022-11-20T16:14:27;40.08;;;19.75;;